Time;durP1;ratioP1;P1;durP2;ratioP2;P2;SDS_P1;SDS_P2;PMS_P1;PMS_P2;Temp;Humidity;BMP_temperature;BMP_pressure;BME280_temperature;BME280_humidity;BME280_pressure;Samples;Min_cycle;Max_cycle;Signal;HPM_P1;HPM_P2
2023/02/08 00:00:21;;;;;;;56.08;33.35;;;;;;;;;;5057713;28;20040;-72
2023/02/08 00:02:48;;;;;;;54.88;32.42;;;;;;;;;;5057783;28;20409;-73
2023/02/08 00:05:13;;;;;;;61.10;34.20;;;;;;;;;;5075736;28;20520;-72
2023/02/08 00:07:39;;;;;;;58.22;34.10;;;;;;;;;;5075163;28;20032;-72
2023/02/08 00:10:05;;;;;;;56.40;32.63;;;;;;;;;;5040636;28;20356;-71
2023/02/08 00:12:31;;;;;;;58.08;34.05;;;;;;;;;;5057517;28;20078;-73
2023/02/08 00:14:57;;;;;;;63.85;34.85;;;;;;;;;;5057674;28;20051;-72
2023/02/08 00:17:22;;;;;;;58.80;33.58;;;;;;;;;;5057268;28;20033;-72
2023/02/08 00:19:47;;;;;;;58.80;34.88;;;;;;;;;;5075174;28;20470;-72
2023/02/08 00:22:14;;;;;;;61.75;35.58;;;;;;;;;;5075505;28;20064;-73
2023/02/08 00:24:39;;;;;;;182.15;86.63;;;;;;;;;;5074788;28;20021;-72
2023/02/08 00:27:04;;;;;;;148.30;71.68;;;;;;;;;;5074875;28;20408;-73
2023/02/08 00:29:30;;;;;;;113.32;59.50;;;;;;;;;;5074917;28;20028;-72
2023/02/08 00:31:55;;;;;;;60.17;34.70;;;;;;;;;;5074775;28;20024;-72
2023/02/08 00:34:20;;;;;;;46.45;28.85;;;;;;;;;;5056938;28;20028;-71
2023/02/08 00:36:48;;;;;;;44.15;26.58;;;;;;;;;;5074425;28;20055;-72
2023/02/08 00:39:13;;;;;;;52.53;30.08;;;;;;;;;;5074386;28;20036;-74
2023/02/08 00:41:39;;;;;;;47.80;28.67;;;;;;;;;;5074443;28;20035;-71
2023/02/08 00:44:04;;;;;;;44.35;27.25;;;;;;;;;;5074696;28;20391;-72
2023/02/08 00:46:31;;;;;;;50.85;27.95;;;;;;;;;;5074470;28;20051;-72
2023/02/08 00:48:56;;;;;;;74.43;47.38;;;;;;;;;;5074526;28;20394;-72
2023/02/08 00:51:21;;;;;;;59.00;33.30;;;;;;;;;;5056542;28;20021;-71
2023/02/08 00:53:48;;;;;;;67.35;43.30;;;;;;;;;;5056700;28;20036;-72
2023/02/08 00:56:14;;;;;;;76.70;48.90;;;;;;;;;;5056690;28;20036;-71
2023/02/08 00:58:39;;;;;;;61.15;38.08;;;;;;;;;;5056634;28;20063;-72
2023/02/08 01:01:05;;;;;;;54.72;33.97;;;;;;;;;;5074513;28;20370;-75
2023/02/08 01:03:35;;;;;;;61.83;35.42;;;;;;;;;;5039803;28;20052;-75
2023/02/08 01:06:01;;;;;;;160.02;98.25;;;;;;;;;;5074493;28;20040;-76
2023/02/08 01:08:28;;;;;;;78.18;46.90;;;;;;;;;;5056439;28;20032;-70
2023/02/08 01:11:01;;;;;;;83.90;50.72;;;;;;;;;;5056108;28;20100;-75
2023/02/08 01:13:26;;;;;;;58.15;34.63;;;;;;;;;;5074281;28;20040;-73
2023/02/08 01:15:52;;;;;;;65.65;39.85;;;;;;;;;;5074103;28;20079;-73
2023/02/08 01:18:17;;;;;;;57.65;34.03;;;;;;;;;;5055812;28;20483;-75
2023/02/08 01:20:42;;;;;;;65.18;39.00;;;;;;;;;;5073725;28;20029;-75
2023/02/08 01:23:08;;;;;;;50.50;30.35;;;;;;;;;;5056168;28;20032;-76
2023/02/08 01:25:33;;;;;;;44.17;27.48;;;;;;;;;;5056253;28;20066;-74
2023/02/08 01:27:59;;;;;;;47.50;27.90;;;;;;;;;;5073221;28;20383;-74
2023/02/08 01:30:25;;;;;;;47.78;29.13;;;;;;;;;;5056273;28;20082;-74
2023/02/08 01:32:50;;;;;;;50.15;28.73;;;;;;;;;;5074137;28;20455;-79
2023/02/08 01:35:15;;;;;;;49.08;29.70;;;;;;;;;;5074155;28;20024;-79
2023/02/08 01:37:40;;;;;;;53.22;30.13;;;;;;;;;;5039417;28;20470;-73
2023/02/08 01:40:07;;;;;;;48.95;28.67;;;;;;;;;;5056039;28;20078;-73
2023/02/08 01:42:32;;;;;;;51.88;29.20;;;;;;;;;;5073831;28;20012;-73
2023/02/08 01:45:19;;;;;;;51.90;29.63;;;;;;;;;;5055318;28;20142;-72
2023/02/08 01:47:48;;;;;;;48.22;28.35;;;;;;;;;;5056069;28;20479;-73
2023/02/08 01:50:14;;;;;;;35.47;20.95;;;;;;;;;;5055771;28;20143;-75
2023/02/08 01:52:40;;;;;;;28.52;17.50;;;;;;;;;;5055311;28;20031;-75
2023/02/08 01:55:11;;;;;;;32.35;19.08;;;;;;;;;;5073784;28;20036;-71
2023/02/08 01:57:40;;;;;;;28.15;18.73;;;;;;;;;;5055540;28;20042;-76
2023/02/08 02:00:14;;;;;;;28.08;18.05;;;;;;;;;;5073513;28;20112;-77
2023/02/08 02:02:40;;;;;;;29.42;17.23;;;;;;;;;;5073667;28;20040;-76
2023/02/08 02:05:06;;;;;;;30.63;18.67;;;;;;;;;;5055595;28;20033;-76
2023/02/08 02:07:31;;;;;;;32.55;20.48;;;;;;;;;;5056020;28;20025;-77
2023/02/08 02:10:06;;;;;;;30.73;18.73;;;;;;;;;;5055644;28;20463;-75
2023/02/08 02:12:32;;;;;;;29.02;18.25;;;;;;;;;;5055445;28;20033;-73
2023/02/08 02:14:58;;;;;;;27.13;17.75;;;;;;;;;;5055147;28;20025;-69
2023/02/08 02:17:25;;;;;;;33.45;18.70;;;;;;;;;;5055179;28;20474;-71
2023/02/08 02:20:04;;;;;;;26.42;16.80;;;;;;;;;;5055534;28;20467;-71
2023/02/08 02:22:48;;;;;;;25.27;15.25;;;;;;;;;;5055807;28;20040;-71
2023/02/08 02:25:20;;;;;;;25.45;16.83;;;;;;;;;;5073464;28;20133;-74
2023/02/08 02:28:12;;;;;;;28.20;17.00;;;;;;;;;;5063929;23;20045;-74
2023/02/08 02:30:47;;;;;;;23.95;15.60;;;;;;;;;;5051948;28;20548;-75
2023/02/08 02:33:19;;;;;;;19.75;13.65;;;;;;;;;;5036968;28;20056;-74
2023/02/08 02:35:56;;;;;;;26.25;16.08;;;;;;;;;;5053196;28;20084;-70
2023/02/08 02:38:24;;;;;;;22.80;15.32;;;;;;;;;;5069653;28;20028;-70
2023/02/08 02:41:01;;;;;;;20.60;13.95;;;;;;;;;;5059462;28;20458;-72
2023/02/08 02:43:42;;;;;;;25.42;16.33;;;;;;;;;;5076743;28;20048;-71
2023/02/08 02:46:22;;;;;;;23.42;15.05;;;;;;;;;;5058696;28;20124;-72
2023/02/08 02:48:47;;;;;;;;;;;;;;;;;;5077116;28;20545;-71
2023/02/08 02:51:17;;;;;;;22.50;14.93;;;;;;;;;;5077198;28;19996;-72
2023/02/08 02:54:02;;;;;;;24.30;13.23;;;;;;;;;;5059200;28;20082;-72
2023/02/08 02:56:39;;;;;;;23.77;16.00;;;;;;;;;;5057996;28;20055;-72
2023/02/08 02:59:07;;;;;;;26.63;17.83;;;;;;;;;;5058987;28;20054;-73
2023/02/08 03:01:32;;;;;;;25.95;15.73;;;;;;;;;;5076752;28;20097;-72
2023/02/08 03:03:58;;;;;;;26.52;15.98;;;;;;;;;;5042097;28;20425;-72
2023/02/08 03:06:52;;;;;;;57.40;34.60;;;;;;;;;;5076484;28;20458;-72
2023/02/08 03:09:19;;;;;;;69.63;40.80;;;;;;;;;;5004431;28;20076;-72
2023/02/08 03:11:50;;;;;;;153.15;98.63;;;;;;;;;;5058608;28;20024;-72
2023/02/08 03:14:21;;;;;;;174.93;115.32;;;;;;;;;;5058586;28;20024;-72
2023/02/08 03:16:55;;;;;;;263.13;195.15;;;;;;;;;;5076758;28;20352;-72
2023/02/08 03:19:33;;;;;;;94.10;75.07;;;;;;;;;;5058558;28;20032;-71
2023/02/08 03:22:07;;;;;;;37.42;24.45;;;;;;;;;;5058390;28;20082;-73
2023/02/08 03:24:53;;;;;;;86.10;47.42;;;;;;;;;;5076181;28;20032;-73
2023/02/08 03:27:26;;;;;;;93.35;49.25;;;;;;;;;;5076169;28;20094;-72
2023/02/08 03:30:04;;;;;;;66.88;37.03;;;;;;;;;;5058612;28;20099;-72
2023/02/08 03:32:36;;;;;;;178.98;81.43;;;;;;;;;;5076177;28;20520;-72
2023/02/08 03:35:05;;;;;;;201.25;83.13;;;;;;;;;;5058101;28;20032;-71
2023/02/08 03:37:33;;;;;;;75.93;37.60;;;;;;;;;;5076353;28;20028;-72
2023/02/08 03:40:03;;;;;;;82.88;41.50;;;;;;;;;;5075980;28;20028;-71
2023/02/08 03:42:29;;;;;;;36.35;21.38;;;;;;;;;;5075846;28;20043;-72
2023/02/08 03:45:21;;;;;;;31.88;19.83;;;;;;;;;;5075955;28;20032;-73
2023/02/08 03:47:48;;;;;;;51.00;27.20;;;;;;;;;;5054847;28;20036;-73
2023/02/08 03:50:16;;;;;;;66.53;32.67;;;;;;;;;;5074962;28;20447;-73
2023/02/08 03:52:41;;;;;;;143.00;65.32;;;;;;;;;;5075999;28;20090;-73
2023/02/08 03:55:12;;;;;;;31.30;19.35;;;;;;;;;;5075791;28;20032;-73
2023/02/08 03:57:43;;;;;;;75.68;37.25;;;;;;;;;;5075696;28;20440;-73
2023/02/08 04:00:10;;;;;;;72.38;37.58;;;;;;;;;;5075511;28;20039;-73
2023/02/08 04:02:54;;;;;;;58.97;32.95;;;;;;;;;;5041294;28;20029;-74
2023/02/08 04:05:21;;;;;;;55.63;31.20;;;;;;;;;;5075240;28;20030;-75
2023/02/08 04:07:46;;;;;;;33.25;20.30;;;;;;;;;;5075350;28;20078;-74
2023/02/08 04:10:11;;;;;;;33.33;21.33;;;;;;;;;;5075251;28;20020;-70
2023/02/08 04:12:37;;;;;;;35.53;21.05;;;;;;;;;;5057663;28;20070;-71
2023/02/08 04:15:02;;;;;;;31.25;20.05;;;;;;;;;;5057543;28;20056;-72
2023/02/08 04:17:28;;;;;;;34.00;22.27;;;;;;;;;;5056330;28;20123;-72
2023/02/08 04:19:53;;;;;;;35.42;22.40;;;;;;;;;;5074718;28;20016;-71
2023/02/08 04:22:18;;;;;;;41.67;23.52;;;;;;;;;;5075305;28;20035;-71
2023/02/08 04:24:44;;;;;;;34.13;21.58;;;;;;;;;;5075381;28;20032;-71
2023/02/08 04:27:09;;;;;;;31.23;21.25;;;;;;;;;;5056837;28;20052;-71
2023/02/08 04:29:34;;;;;;;32.58;21.80;;;;;;;;;;5074497;28;20040;-71
2023/02/08 04:32:00;;;;;;;30.85;22.60;;;;;;;;;;5075229;28;20032;-72
2023/02/08 04:34:26;;;;;;;32.85;22.25;;;;;;;;;;5075061;28;20035;-72
2023/02/08 04:36:51;;;;;;;34.10;21.92;;;;;;;;;;5075170;28;20108;-71
2023/02/08 04:39:16;;;;;;;34.83;22.80;;;;;;;;;;5074053;28;20471;-72
2023/02/08 04:41:42;;;;;;;35.33;23.15;;;;;;;;;;5056473;28;20028;-71
2023/02/08 04:44:07;;;;;;;32.75;22.83;;;;;;;;;;5056604;28;20063;-72
2023/02/08 04:46:33;;;;;;;34.47;23.83;;;;;;;;;;5074748;28;20105;-70
2023/02/08 04:48:59;;;;;;;36.20;25.15;;;;;;;;;;5056992;28;20044;-70
2023/02/08 04:51:24;;;;;;;37.28;24.58;;;;;;;;;;5074508;28;20363;-70
2023/02/08 04:53:49;;;;;;;38.47;25.83;;;;;;;;;;5074838;28;20037;-72
2023/02/08 04:56:15;;;;;;;37.28;25.55;;;;;;;;;;5057045;28;20035;-71
2023/02/08 04:58:40;;;;;;;35.83;24.27;;;;;;;;;;5056506;28;20036;-71
2023/02/08 05:01:06;;;;;;;38.55;25.17;;;;;;;;;;5073719;28;20048;-70
2023/02/08 05:03:32;;;;;;;36.95;23.83;;;;;;;;;;5055755;28;20039;-72
2023/02/08 05:05:58;;;;;;;35.40;24.02;;;;;;;;;;5073774;28;20108;-73
2023/02/08 05:08:23;;;;;;;35.63;23.88;;;;;;;;;;5073943;28;20054;-68
2023/02/08 05:10:49;;;;;;;32.25;24.05;;;;;;;;;;5073811;28;20541;-67
2023/02/08 05:13:14;;;;;;;34.92;24.67;;;;;;;;;;5074162;28;20387;-72
2023/02/08 05:15:39;;;;;;;33.58;23.55;;;;;;;;;;5074209;28;20043;-70
2023/02/08 05:18:04;;;;;;;35.78;24.83;;;;;;;;;;5073708;28;20021;-72
2023/02/08 05:20:32;;;;;;;39.75;27.92;;;;;;;;;;5073176;28;20442;-71
2023/02/08 05:22:58;;;;;;;40.00;26.25;;;;;;;;;;5055006;28;20040;-70
2023/02/08 05:25:23;;;;;;;37.40;25.27;;;;;;;;;;5071843;28;20028;-73
2023/02/08 05:27:48;;;;;;;35.13;24.27;;;;;;;;;;5038451;28;20056;-75
2023/02/08 05:30:14;;;;;;;39.15;25.90;;;;;;;;;;5055652;28;20120;-73
2023/02/08 05:32:40;;;;;;;37.05;24.63;;;;;;;;;;5052375;28;20017;-74
2023/02/08 05:35:05;;;;;;;36.47;24.35;;;;;;;;;;5035856;28;20444;-71
2023/02/08 05:37:31;;;;;;;38.13;24.55;;;;;;;;;;5035826;28;20041;-71
2023/02/08 05:39:56;;;;;;;35.35;24.50;;;;;;;;;;5053262;28;20520;-71
2023/02/08 05:42:22;;;;;;;39.40;25.67;;;;;;;;;;5052910;28;20470;-71
2023/02/08 05:44:47;;;;;;;36.45;24.65;;;;;;;;;;5055522;28;20063;-72
2023/02/08 05:47:12;;;;;;;34.80;24.85;;;;;;;;;;5054982;28;20409;-71
2023/02/08 05:49:38;;;;;;;35.20;23.17;;;;;;;;;;5073493;28;20074;-72
2023/02/08 05:52:03;;;;;;;37.67;24.77;;;;;;;;;;5073545;28;20036;-72
2023/02/08 05:54:29;;;;;;;35.08;23.05;;;;;;;;;;5055192;28;20013;-73
2023/02/08 05:56:54;;;;;;;36.55;24.40;;;;;;;;;;5055282;28;20099;-71
2023/02/08 05:59:19;;;;;;;34.50;24.33;;;;;;;;;;5054990;28;20028;-72
2023/02/08 06:01:45;;;;;;;35.25;24.52;;;;;;;;;;5072904;28;20447;-71
2023/02/08 06:04:10;;;;;;;35.35;25.00;;;;;;;;;;5055082;28;20025;-70
2023/02/08 06:06:35;;;;;;;40.55;24.95;;;;;;;;;;5055499;28;20520;-77
2023/02/08 06:09:01;;;;;;;39.72;25.10;;;;;;;;;;5073161;28;20028;-68
2023/02/08 06:11:26;;;;;;;38.53;24.95;;;;;;;;;;5055292;28;20024;-68
2023/02/08 06:13:52;;;;;;;40.00;25.27;;;;;;;;;;5057337;28;20016;-67
2023/02/08 06:16:17;;;;;;;48.80;31.10;;;;;;;;;;5077310;28;20021;-68
2023/02/08 06:18:42;;;;;;;62.13;39.28;;;;;;;;;;5043012;28;20044;-69
2023/02/08 06:21:08;;;;;;;159.07;115.88;;;;;;;;;;5077430;28;20041;-69
2023/02/08 06:23:34;;;;;;;55.33;34.53;;;;;;;;;;5059107;28;20070;-69
2023/02/08 06:25:59;;;;;;;53.75;31.98;;;;;;;;;;5059730;28;20029;-69
2023/02/08 06:28:24;;;;;;;141.20;89.10;;;;;;;;;;5059386;28;20043;-69
2023/02/08 06:30:50;;;;;;;42.58;27.33;;;;;;;;;;5059381;28;20446;-68
2023/02/08 06:33:16;;;;;;;42.97;31.00;;;;;;;;;;5077176;28;20025;-69
2023/02/08 06:35:45;;;;;;;35.70;23.10;;;;;;;;;;5058252;28;20060;-69
2023/02/08 06:38:12;;;;;;;35.65;22.88;;;;;;;;;;5075748;28;20044;-69
2023/02/08 06:40:37;;;;;;;33.08;22.70;;;;;;;;;;5057898;28;20074;-69
2023/02/08 06:43:04;;;;;;;35.28;23.00;;;;;;;;;;5057631;28;20029;-69
2023/02/08 06:45:29;;;;;;;36.92;24.25;;;;;;;;;;5075599;28;20047;-69
2023/02/08 06:47:54;;;;;;;36.60;22.75;;;;;;;;;;5056137;28;20021;-70
2023/02/08 06:50:20;;;;;;;36.78;23.40;;;;;;;;;;5075435;28;20474;-69
2023/02/08 06:52:46;;;;;;;40.63;24.77;;;;;;;;;;5075178;28;20513;-69
2023/02/08 06:55:12;;;;;;;37.65;25.63;;;;;;;;;;5074069;28;20081;-69
2023/02/08 06:57:37;;;;;;;36.55;24.77;;;;;;;;;;5073939;28;20024;-74
2023/02/08 07:00:03;;;;;;;36.08;23.95;;;;;;;;;;5073816;28;20028;-74
2023/02/08 07:02:28;;;;;;;36.00;23.83;;;;;;;;;;5055831;28;20100;-74
2023/02/08 07:04:54;;;;;;;36.45;25.17;;;;;;;;;;5056097;28;20024;-74
2023/02/08 07:07:19;;;;;;;37.92;24.38;;;;;;;;;;5074296;28;20032;-74
2023/02/08 07:09:44;;;;;;;36.03;24.35;;;;;;;;;;5076041;28;20048;-75
2023/02/08 07:12:10;;;;;;;34.22;23.48;;;;;;;;;;5076475;28;20032;-74
2023/02/08 07:14:37;;;;;;;39.22;26.02;;;;;;;;;;5058661;28;20078;-74
2023/02/08 07:17:03;;;;;;;33.30;24.40;;;;;;;;;;5076470;28;20119;-74
2023/02/08 07:19:28;;;;;;;34.70;23.00;;;;;;;;;;5041816;28;20058;-75
2023/02/08 07:21:54;;;;;;;33.45;21.45;;;;;;;;;;5076349;28;20372;-74
2023/02/08 07:24:20;;;;;;;30.77;22.20;;;;;;;;;;5075723;28;20044;-70
2023/02/08 07:26:45;;;;;;;27.27;19.80;;;;;;;;;;5075844;28;20073;-68
2023/02/08 07:29:10;;;;;;;31.10;20.95;;;;;;;;;;5076936;28;20033;-68
2023/02/08 07:31:35;;;;;;;29.88;20.23;;;;;;;;;;5058234;28;20093;-69
2023/02/08 07:34:01;;;;;;;25.42;17.95;;;;;;;;;;5068971;23;20065;-74
2023/02/08 07:36:26;;;;;;;26.80;19.27;;;;;;;;;;5071980;22;20044;-72
2023/02/08 07:38:51;;;;;;;25.20;17.70;;;;;;;;;;5048203;23;20545;-74
2023/02/08 07:41:17;;;;;;;34.08;24.05;;;;;;;;;;5038097;28;20049;-74
2023/02/08 07:43:43;;;;;;;23.88;16.65;;;;;;;;;;5055889;28;20023;-73
2023/02/08 07:46:09;;;;;;;190.48;127.53;;;;;;;;;;5037944;28;20116;-74
2023/02/08 07:48:35;;;;;;;23.58;18.10;;;;;;;;;;5055767;28;20025;-74
2023/02/08 07:51:01;;;;;;;39.03;25.80;;;;;;;;;;5038136;28;20039;-74
2023/02/08 07:53:26;;;;;;;24.70;18.17;;;;;;;;;;5055734;28;20013;-74
2023/02/08 07:55:52;;;;;;;22.77;15.85;;;;;;;;;;5021359;28;20090;-74
2023/02/08 07:58:17;;;;;;;29.40;20.63;;;;;;;;;;5055620;28;20029;-74
2023/02/08 08:00:42;;;;;;;24.30;16.35;;;;;;;;;;5055600;28;20474;-74
2023/02/08 08:03:07;;;;;;;21.88;15.18;;;;;;;;;;5055620;28;20116;-74
2023/02/08 08:05:33;;;;;;;17.52;12.48;;;;;;;;;;5055498;28;20017;-74
2023/02/08 08:07:58;;;;;;;35.65;23.67;;;;;;;;;;5055427;28;20069;-75
2023/02/08 08:10:23;;;;;;;45.20;34.92;;;;;;;;;;5037570;28;20455;-74
2023/02/08 08:12:49;;;;;;;23.00;18.52;;;;;;;;;;5037514;28;20029;-74
2023/02/08 08:15:14;;;;;;;12.98;10.32;;;;;;;;;;5037430;28;20039;-75
2023/02/08 08:17:41;;;;;;;14.50;10.13;;;;;;;;;;5037431;28;20037;-73
2023/02/08 08:20:07;;;;;;;13.10;11.05;;;;;;;;;;5037540;28;20032;-74
2023/02/08 08:22:33;;;;;;;12.68;9.82;;;;;;;;;;5004539;28;20074;-74
2023/02/08 08:24:58;;;;;;;65.68;54.00;;;;;;;;;;5055111;28;20020;-74
2023/02/08 08:27:24;;;;;;;14.63;11.35;;;;;;;;;;5055038;28;20475;-74
2023/02/08 08:29:50;;;;;;;17.75;13.48;;;;;;;;;;5037189;28;20021;-73
2023/02/08 08:32:15;;;;;;;60.15;49.55;;;;;;;;;;5037214;28;20092;-70
2023/02/08 08:34:40;;;;;;;14.43;10.68;;;;;;;;;;5054997;28;20482;-68
2023/02/08 08:37:06;;;;;;;32.03;26.35;;;;;;;;;;5036743;28;20040;-69
2023/02/08 08:39:31;;;;;;;29.80;24.77;;;;;;;;;;5054722;28;20057;-69
2023/02/08 08:41:57;;;;;;;16.58;11.70;;;;;;;;;;5020455;28;20082;-69
2023/02/08 08:44:22;;;;;;;9.48;7.55;;;;;;;;;;5036832;28;20029;-68
2023/02/08 08:46:48;;;;;;;13.30;9.70;;;;;;;;;;5054642;28;20029;-68
2023/02/08 08:49:13;;;;;;;13.82;8.15;;;;;;;;;;5037214;28;20025;-69
2023/02/08 08:51:39;;;;;;;11.85;8.20;;;;;;;;;;5054651;28;20472;-69
2023/02/08 08:54:05;;;;;;;10.82;8.45;;;;;;;;;;5036789;28;20028;-69
2023/02/08 08:56:31;;;;;;;10.25;8.00;;;;;;;;;;5036607;28;20545;-69
2023/02/08 08:58:56;;;;;;;10.02;8.30;;;;;;;;;;5054460;28;20040;-68
2023/02/08 09:01:21;;;;;;;8.32;7.00;;;;;;;;;;5054462;28;20075;-69
2023/02/08 09:03:47;;;;;;;10.60;8.15;;;;;;;;;;5054330;28;20028;-68
2023/02/08 09:06:12;;;;;;;11.82;8.10;;;;;;;;;;5036547;28;20040;-68
2023/02/08 09:08:37;;;;;;;8.40;7.50;;;;;;;;;;5054245;28;20104;-69
2023/02/08 09:11:05;;;;;;;11.60;7.80;;;;;;;;;;5036371;28;20071;-69
2023/02/08 09:13:31;;;;;;;8.90;7.82;;;;;;;;;;5036698;28;20120;-69
2023/02/08 09:15:57;;;;;;;10.60;8.30;;;;;;;;;;5054140;28;20523;-67
2023/02/08 09:18:22;;;;;;;11.48;8.48;;;;;;;;;;5057378;23;20054;-69
2023/02/08 09:20:47;;;;;;;11.45;8.70;;;;;;;;;;5074048;28;20028;-68
2023/02/08 09:23:14;;;;;;;12.57;8.88;;;;;;;;;;5056060;28;20025;-67
2023/02/08 09:25:39;;;;;;;10.13;7.82;;;;;;;;;;5073847;28;20043;-69
2023/02/08 09:28:06;;;;;;;10.45;8.30;;;;;;;;;;5073956;28;20069;-69
2023/02/08 09:30:32;;;;;;;11.65;8.95;;;;;;;;;;5056157;28;20162;-68
2023/02/08 09:32:58;;;;;;;12.05;9.02;;;;;;;;;;5056055;28;20086;-68
2023/02/08 09:35:24;;;;;;;10.45;8.18;;;;;;;;;;5073894;28;20490;-68
2023/02/08 09:37:53;;;;;;;10.02;7.80;;;;;;;;;;5073795;28;20040;-69
2023/02/08 09:40:26;;;;;;;11.63;8.80;;;;;;;;;;5073768;28;20029;-68
2023/02/08 09:43:12;;;;;;;12.70;10.27;;;;;;;;;;5055782;28;20123;-68
2023/02/08 09:45:55;;;;;;;9.90;8.73;;;;;;;;;;5072922;28;20037;-70
2023/02/08 09:48:28;;;;;;;13.00;10.18;;;;;;;;;;5055210;28;20064;-73
2023/02/08 09:50:56;;;;;;;14.80;12.35;;;;;;;;;;5073593;28;20028;-72
2023/02/08 09:53:24;;;;;;;13.70;10.63;;;;;;;;;;5073545;28;20489;-73
2023/02/08 09:55:56;;;;;;;13.82;9.55;;;;;;;;;;5055741;28;20040;-73
2023/02/08 09:58:29;;;;;;;11.60;9.85;;;;;;;;;;5055572;28;20029;-68
2023/02/08 10:00:55;;;;;;;12.05;8.65;;;;;;;;;;5073636;28;20032;-67
2023/02/08 10:03:27;;;;;;;9.63;8.10;;;;;;;;;;5073535;28;20478;-67
2023/02/08 10:05:52;;;;;;;10.55;8.25;;;;;;;;;;5055823;28;20176;-69
2023/02/08 10:08:18;;;;;;;11.77;8.65;;;;;;;;;;5073482;28;20021;-70
2023/02/08 10:10:43;;;;;;;17.83;11.85;;;;;;;;;;5073611;28;20017;-69
2023/02/08 10:13:12;;;;;;;14.00;9.70;;;;;;;;;;5055572;28;20530;-68
2023/02/08 10:15:46;;;;;;;18.92;13.25;;;;;;;;;;5055488;28;20089;-68
2023/02/08 10:18:17;;;;;;;17.60;12.52;;;;;;;;;;5073113;28;20094;-68
2023/02/08 10:20:50;;;;;;;9.20;6.82;;;;;;;;;;5073236;28;20089;-68
2023/02/08 10:23:18;;;;;;;8.82;7.20;;;;;;;;;;5055413;28;20040;-68
2023/02/08 10:25:48;;;;;;;8.35;6.15;;;;;;;;;;5055364;28;20111;-67
2023/02/08 10:28:14;;;;;;;8.70;6.30;;;;;;;;;;5073281;28;20025;-69
2023/02/08 10:30:54;;;;;;;8.30;5.95;;;;;;;;;;5073252;28;20451;-68
2023/02/08 10:33:29;;;;;;;6.55;5.85;;;;;;;;;;5073270;28;20024;-69
2023/02/08 10:35:55;;;;;;;6.68;6.07;;;;;;;;;;5073352;28;20386;-68
2023/02/08 10:38:29;;;;;;;8.20;6.38;;;;;;;;;;5055162;28;20395;-67
2023/02/08 10:41:00;;;;;;;8.77;7.22;;;;;;;;;;5055282;28;20600;-67
2023/02/08 10:43:31;;;;;;;9.35;7.32;;;;;;;;;;5073156;28;20020;-68
2023/02/08 10:46:19;;;;;;;8.60;7.00;;;;;;;;;;5073063;28;20036;-68
2023/02/08 10:49:02;;;;;;;10.00;8.13;;;;;;;;;;5073211;28;20411;-67
2023/02/08 10:51:30;;;;;;;11.30;8.98;;;;;;;;;;5055411;28;20388;-67
2023/02/08 10:53:55;;;;;;;14.88;12.80;;;;;;;;;;5073122;28;20402;-69
2023/02/08 10:56:33;;;;;;;10.13;8.07;;;;;;;;;;5061933;23;20128;-69
2023/02/08 10:58:59;;;;;;;7.95;7.15;;;;;;;;;;5053542;28;20032;-68
2023/02/08 11:01:25;;;;;;;8.20;6.70;;;;;;;;;;5038924;28;20029;-69
2023/02/08 11:04:04;;;;;;;9.43;6.55;;;;;;;;;;5056649;28;20051;-69
2023/02/08 11:06:29;;;;;;;6.82;6.20;;;;;;;;;;5056591;28;20432;-67
2023/02/08 11:08:55;;;;;;;6.35;5.70;;;;;;;;;;5056580;28;20020;-67
2023/02/08 11:11:20;;;;;;;7.18;6.50;;;;;;;;;;5038838;28;20040;-67
2023/02/08 11:13:50;;;;;;;8.20;7.40;;;;;;;;;;5022159;28;20072;-68
2023/02/08 11:16:22;;;;;;;10.52;7.68;;;;;;;;;;5056538;28;20029;-67
2023/02/08 11:18:55;;;;;;;6.55;5.18;;;;;;;;;;5038670;28;20037;-68
2023/02/08 11:21:28;;;;;;;6.50;5.90;;;;;;;;;;5038691;28;20032;-69
2023/02/08 11:23:55;;;;;;;5.63;5.03;;;;;;;;;;5056359;28;20036;-73
2023/02/08 11:26:25;;;;;;;7.53;6.00;;;;;;;;;;5056211;28;20457;-74
2023/02/08 11:29:01;;;;;;;6.60;5.55;;;;;;;;;;5038351;28;20463;-74
2023/02/08 11:31:28;;;;;;;8.75;6.55;;;;;;;;;;5038461;28;20485;-74
2023/02/08 11:34:02;;;;;;;9.48;7.82;;;;;;;;;;5056146;28;20017;-73
2023/02/08 11:36:28;;;;;;;7.13;6.43;;;;;;;;;;5038401;28;20041;-74
2023/02/08 11:38:54;;;;;;;8.75;7.00;;;;;;;;;;5038315;28;20032;-74
2023/02/08 11:41:20;;;;;;;10.90;7.10;;;;;;;;;;5038209;28;20040;-73
2023/02/08 11:43:56;;;;;;;8.48;6.50;;;;;;;;;;5056004;28;20131;-74
2023/02/08 11:46:23;;;;;;;8.30;6.32;;;;;;;;;;5038163;28;20470;-74
2023/02/08 11:48:50;;;;;;;7.78;6.03;;;;;;;;;;5055837;28;20095;-74
2023/02/08 11:51:24;;;;;;;8.43;6.85;;;;;;;;;;5055835;28;20083;-74
2023/02/08 11:53:49;;;;;;;6.78;5.72;;;;;;;;;;5055909;28;20026;-75
2023/02/08 11:56:16;;;;;;;7.30;6.00;;;;;;;;;;5037695;28;20052;-74
2023/02/08 11:58:54;;;;;;;8.45;6.85;;;;;;;;;;5037930;28;20104;-74
2023/02/08 12:01:19;;;;;;;11.05;7.75;;;;;;;;;;5055598;28;20502;-74
2023/02/08 12:03:46;;;;;;;11.57;8.60;;;;;;;;;;5055554;28;20033;-74
2023/02/08 12:06:14;;;;;;;8.68;7.15;;;;;;;;;;5055456;28;20032;-74
2023/02/08 12:08:46;;;;;;;8.50;7.43;;;;;;;;;;5055508;28;20080;-74
2023/02/08 12:11:15;;;;;;;9.85;7.38;;;;;;;;;;5036936;28;20033;-75
2023/02/08 12:13:45;;;;;;;12.00;8.40;;;;;;;;;;5037721;28;20096;-75
2023/02/08 12:16:11;;;;;;;;;;;;;;;;;;5037941;28;20033;-74
2023/02/08 12:18:54;;;;;;;11.17;8.40;;;;;;;;;;5055313;28;20425;-74
2023/02/08 12:21:29;;;;;;;11.73;8.25;;;;;;;;;;5020890;28;20290;-74
2023/02/08 12:24:02;;;;;;;11.55;8.27;;;;;;;;;;5055258;28;20029;-74
2023/02/08 12:26:36;;;;;;;10.13;7.93;;;;;;;;;;5020748;28;20108;-74
2023/02/08 12:29:14;;;;;;;12.35;8.38;;;;;;;;;;5043603;23;20144;-70
2023/02/08 12:31:45;;;;;;;10.45;7.82;;;;;;;;;;5037176;28;20025;-68
2023/02/08 12:34:13;;;;;;;11.30;8.65;;;;;;;;;;5055015;28;20056;-68
2023/02/08 12:40:48;;;;;;;15.95;10.10;;;;;;;;;;5054980;28;20033;-67
2023/02/08 12:43:22;;;;;;;11.90;8.68;;;;;;;;;;5012185;22;20071;-73
2023/02/08 12:45:50;;;;;;;11.23;8.13;;;;;;;;;;5055018;28;20119;-73
2023/02/08 12:48:22;;;;;;;13.63;9.75;;;;;;;;;;5055048;28;20075;-74
2023/02/08 12:50:48;;;;;;;9.40;8.45;;;;;;;;;;5036801;28;20039;-73
2023/02/08 12:53:24;;;;;;;51.92;42.17;;;;;;;;;;5036752;28;20032;-74
2023/02/08 12:55:50;;;;;;;12.40;9.65;;;;;;;;;;5054860;28;20459;-74
2023/02/08 12:58:29;;;;;;;26.02;16.52;;;;;;;;;;5036713;28;20474;-74
2023/02/08 13:00:56;;;;;;;13.13;8.77;;;;;;;;;;5055063;28;20108;-74
2023/02/08 13:03:22;;;;;;;10.35;8.30;;;;;;;;;;5054716;28;20481;-74
2023/02/08 13:05:47;;;;;;;10.60;7.97;;;;;;;;;;5054350;28;20031;-74
2023/02/08 13:08:25;;;;;;;13.23;9.70;;;;;;;;;;5036717;28;20024;-74
2023/02/08 13:10:52;;;;;;;14.48;11.93;;;;;;;;;;5054560;28;20060;-74
2023/02/08 13:13:17;;;;;;;10.07;8.25;;;;;;;;;;5036552;28;20383;-73
2023/02/08 13:15:45;;;;;;;10.32;8.70;;;;;;;;;;5054497;28;20029;-74
2023/02/08 13:18:13;;;;;;;11.70;8.63;;;;;;;;;;5054486;28;20025;-74
2023/02/08 13:20:44;;;;;;;10.38;8.77;;;;;;;;;;5036319;28;20041;-68
2023/02/08 13:23:11;;;;;;;;;;;;;;;;;;5035891;28;20117;-69
2023/02/08 13:25:37;;;;;;;13.82;10.25;;;;;;;;;;5054540;28;20359;-68
2023/02/08 13:28:04;;;;;;;13.50;10.52;;;;;;;;;;5054431;28;20027;-68
2023/02/08 13:30:30;;;;;;;14.90;10.93;;;;;;;;;;5053999;28;20056;-69
2023/02/08 13:32:56;;;;;;;10.48;9.07;;;;;;;;;;5054250;28;20025;-67
2023/02/08 13:35:27;;;;;;;11.57;8.65;;;;;;;;;;5053902;28;20522;-67
2023/02/08 13:38:21;;;;;;;9.77;8.35;;;;;;;;;;5054158;28;20033;-69
2023/02/08 13:40:59;;;;;;;15.68;11.23;;;;;;;;;;5036408;28;20029;-69
2023/02/08 13:43:28;;;;;;;10.77;8.98;;;;;;;;;;5035940;28;20044;-68
2023/02/08 13:45:57;;;;;;;15.77;10.50;;;;;;;;;;5035832;28;20091;-68
2023/02/08 13:48:23;;;;;;;25.30;17.35;;;;;;;;;;5054028;28;20072;-69
2023/02/08 13:50:50;;;;;;;21.17;13.15;;;;;;;;;;5053733;28;20052;-70
2023/02/08 13:53:17;;;;;;;21.65;13.10;;;;;;;;;;5053665;28;20025;-69
2023/02/08 13:55:53;;;;;;;21.75;13.20;;;;;;;;;;5019332;28;20368;-70
2023/02/08 13:58:25;;;;;;;17.85;13.18;;;;;;;;;;5053566;28;20044;-68
2023/02/08 14:00:53;;;;;;;29.40;16.98;;;;;;;;;;5054126;28;20479;-69
2023/02/08 14:03:26;;;;;;;22.98;15.07;;;;;;;;;;5036290;28;20020;-69
2023/02/08 14:06:00;;;;;;;19.35;13.20;;;;;;;;;;5053473;28;20041;-69
2023/02/08 14:08:28;;;;;;;17.92;13.32;;;;;;;;;;5053814;28;20092;-69
2023/02/08 14:11:11;;;;;;;21.83;14.45;;;;;;;;;;5053772;28;20025;-69
2023/02/08 14:13:59;;;;;;;27.42;18.02;;;;;;;;;;5053488;28;20495;-69
2023/02/08 14:16:27;;;;;;;47.13;31.27;;;;;;;;;;5052712;28;20037;-69
2023/02/08 14:19:00;;;;;;;19.33;14.18;;;;;;;;;;5053693;28;20154;-69
2023/02/08 14:21:34;;;;;;;25.80;18.58;;;;;;;;;;5035678;28;20025;-69
2023/02/08 14:24:02;;;;;;;29.40;16.92;;;;;;;;;;5053662;28;20032;-69
2023/02/08 14:26:27;;;;;;;33.67;19.85;;;;;;;;;;5053538;28;20033;-69
2023/02/08 14:28:55;;;;;;;29.33;20.80;;;;;;;;;;5035861;28;20357;-69
2023/02/08 14:31:33;;;;;;;26.75;18.25;;;;;;;;;;5035806;28;20021;-68
2023/02/08 14:33:59;;;;;;;24.15;16.00;;;;;;;;;;5036015;28;20061;-69